AAL227 KBOS-CYUL
Flight info
| Callsign | AAL227 |
|---|---|
| Flight time | 0h 50m |
| Altitude | 34000 |
| Route | HYLND7 HYLND PBERG CARTR5 |
| Aircraft | B738/M-SDE2E3FGHIRWXY/LB1 |
Departure
| Time | 2026-05-07 19:55 |
|---|---|
| Airport | Boston Logan International Airport (KBOS) |
Arrival
| Time | 2026-05-07 20:45 |
|---|---|
| Airport | Montreal / Pierre Elliott Trudeau International Airport (CYUL) |
| Time | Latitude | Longitude | Altitude | Speed | Heading |
|---|---|---|---|---|---|
| 2026-05-07 19:30 | 42.36605 | -71.01350 | 28 ft | 0 kts | 281° |
| 2026-05-07 19:33 | 42.36605 | -71.01351 | 28 ft | 0 kts | 281° |
| 2026-05-07 19:35 | 42.36606 | -71.01351 | 28 ft | 0 kts | 281° |
| 2026-05-07 19:36 | 42.36606 | -71.01352 | 28 ft | 0 kts | 281° |
| 2026-05-07 19:39 | 42.36606 | -71.01353 | 28 ft | 0 kts | 281° |
| 2026-05-07 19:43 | 42.36606 | -71.01354 | 28 ft | 0 kts | 281° |
| 2026-05-07 19:44 | 42.36604 | -71.01344 | 28 ft | 2 kts | 280° |
| 2026-05-07 19:44 | 42.36603 | -71.01321 | 28 ft | 3 kts | 265° |
| 2026-05-07 19:44 | 42.36606 | -71.01303 | 28 ft | 3 kts | 254° |
| 2026-05-07 19:45 | 42.36618 | -71.01270 | 28 ft | 3 kts | 232° |
| 2026-05-07 19:45 | 42.36621 | -71.01265 | 28 ft | 0 kts | 229° |
| 2026-05-07 19:47 | 42.36621 | -71.01266 | 28 ft | 0 kts | 229° |
| 2026-05-07 19:47 | 42.36613 | -71.01274 | 28 ft | 1 kts | 211° |
| 2026-05-07 19:47 | 42.36583 | -71.01293 | 28 ft | 11 kts | 192° |
| 2026-05-07 19:47 | 42.36507 | -71.01333 | 28 ft | 13 kts | 212° |
| 2026-05-07 19:48 | 42.36450 | -71.01373 | 28 ft | 5 kts | 200° |
| 2026-05-07 19:48 | 42.36412 | -71.01392 | 28 ft | 5 kts | 192° |
| 2026-05-07 19:48 | 42.36382 | -71.01392 | 28 ft | 5 kts | 161° |
| 2026-05-07 19:48 | 42.36347 | -71.01340 | 28 ft | 11 kts | 124° |
| 2026-05-07 19:49 | 42.36298 | -71.01224 | 28 ft | 15 kts | 124° |
| 2026-05-07 19:49 | 42.36256 | -71.01128 | 28 ft | 10 kts | 114° |
| 2026-05-07 19:49 | 42.36225 | -71.01037 | 28 ft | 13 kts | 115° |
| 2026-05-07 19:49 | 42.36183 | -71.00913 | 28 ft | 16 kts | 114° |
| 2026-05-07 19:50 | 42.36140 | -71.00785 | 28 ft | 14 kts | 114° |
| 2026-05-07 19:50 | 42.36111 | -71.00670 | 28 ft | 12 kts | 111° |
| 2026-05-07 19:50 | 42.36081 | -71.00553 | 28 ft | 13 kts | 102° |
| 2026-05-07 19:50 | 42.36046 | -71.00420 | 28 ft | 18 kts | 111° |
| 2026-05-07 19:51 | 42.36008 | -71.00272 | 28 ft | 16 kts | 108° |
| 2026-05-07 19:51 | 42.35977 | -71.00155 | 28 ft | 12 kts | 112° |
| 2026-05-07 19:51 | 42.35937 | -71.00060 | 28 ft | 12 kts | 130° |
| 2026-05-07 19:51 | 42.35882 | -70.99982 | 28 ft | 13 kts | 136° |
| 2026-05-07 19:52 | 42.35809 | -70.99886 | 28 ft | 13 kts | 134° |
| 2026-05-07 19:52 | 42.35752 | -70.99809 | 28 ft | 12 kts | 136° |
| 2026-05-07 19:52 | 42.35683 | -70.99716 | 28 ft | 16 kts | 135° |
| 2026-05-07 19:52 | 42.35597 | -70.99602 | 28 ft | 18 kts | 135° |
| 2026-05-07 19:53 | 42.35512 | -70.99490 | 28 ft | 15 kts | 130° |
| 2026-05-07 19:53 | 42.35495 | -70.99370 | 28 ft | 12 kts | 80° |
| 2026-05-07 19:53 | 42.35530 | -70.99299 | 28 ft | 7 kts | 19° |
| 2026-05-07 19:53 | 42.35555 | -70.99299 | 28 ft | 3 kts | 339° |
| 2026-05-07 19:54 | 42.35577 | -70.99319 | 28 ft | 4 kts | 319° |
| 2026-05-07 19:54 | 42.35627 | -70.99384 | 28 ft | 35 kts | 316° |
| 2026-05-07 19:54 | 42.36010 | -70.99888 | 28 ft | 115 kts | 315° |
| 2026-05-07 19:54 | 42.36716 | -71.00834 | 292 ft | 155 kts | 315° |
| 2026-05-07 19:55 | 42.37463 | -71.01826 | 1325 ft | 150 kts | 314° |
| 2026-05-07 19:55 | 42.38250 | -71.02879 | 2087 ft | 164 kts | 315° |
| 2026-05-07 19:55 | 42.38976 | -71.04092 | 2914 ft | 170 kts | 300° |
| 2026-05-07 19:55 | 42.39561 | -71.05485 | 3728 ft | 173 kts | 298° |
| 2026-05-07 19:56 | 42.40153 | -71.06963 | 4400 ft | 186 kts | 299° |
| 2026-05-07 19:56 | 42.40781 | -71.08543 | 5062 ft | 198 kts | 299° |
| 2026-05-07 19:56 | 42.41718 | -71.10006 | 5585 ft | 219 kts | 326° |
| 2026-05-07 19:56 | 42.43125 | -71.10949 | 6265 ft | 233 kts | 336° |
| 2026-05-07 19:57 | 42.44684 | -71.11792 | 6953 ft | 246 kts | 337° |
| 2026-05-07 19:57 | 42.46302 | -71.12641 | 7756 ft | 256 kts | 338° |
| 2026-05-07 19:57 | 42.48009 | -71.13540 | 8434 ft | 270 kts | 337° |
| 2026-05-07 19:57 | 42.49781 | -71.14498 | 9220 ft | 277 kts | 337° |
| 2026-05-07 19:58 | 42.51571 | -71.15451 | 10194 ft | 276 kts | 337° |
| 2026-05-07 19:58 | 42.53435 | -71.16352 | 10761 ft | 294 kts | 340° |
| 2026-05-07 19:58 | 42.55435 | -71.17220 | 11516 ft | 303 kts | 341° |
| 2026-05-07 19:58 | 42.57459 | -71.18105 | 12301 ft | 310 kts | 340° |
| 2026-05-07 19:59 | 42.59516 | -71.19035 | 13111 ft | 312 kts | 339° |
| 2026-05-07 19:59 | 42.61563 | -71.19980 | 14086 ft | 310 kts | 338° |
| 2026-05-07 19:59 | 42.62928 | -71.20622 | 14657 ft | 311 kts | 338° |
| 2026-05-07 19:59 | 42.64722 | -71.21449 | 15245 ft | 320 kts | 339° |
| 2026-05-07 20:00 | 42.66873 | -71.22376 | 15925 ft | 324 kts | 338° |
| 2026-05-07 20:00 | 42.68997 | -71.23311 | 16961 ft | 318 kts | 337° |
| 2026-05-07 20:00 | 42.71100 | -71.24280 | 17751 ft | 321 kts | 336° |
| 2026-05-07 20:00 | 42.73233 | -71.25298 | 18328 ft | 331 kts | 336° |
| 2026-05-07 20:01 | 42.75442 | -71.26332 | 18854 ft | 340 kts | 336° |
| 2026-05-07 20:01 | 42.77606 | -71.27578 | 19656 ft | 336 kts | 326° |
| 2026-05-07 20:01 | 42.79548 | -71.29371 | 20197 ft | 340 kts | 317° |
| 2026-05-07 20:01 | 42.81391 | -71.31352 | 21148 ft | 335 kts | 316° |
| 2026-05-07 20:02 | 42.83220 | -71.33388 | 21618 ft | 344 kts | 316° |
| 2026-05-07 20:02 | 42.85072 | -71.35428 | 22460 ft | 341 kts | 316° |
| 2026-05-07 20:02 | 42.86907 | -71.37499 | 23079 ft | 346 kts | 315° |
| 2026-05-07 20:02 | 42.88810 | -71.39593 | 23458 ft | 355 kts | 315° |
| 2026-05-07 20:03 | 42.90687 | -71.41731 | 24338 ft | 348 kts | 314° |
| 2026-05-07 20:03 | 42.92582 | -71.43842 | 24856 ft | 354 kts | 315° |
| 2026-05-07 20:03 | 42.94510 | -71.45982 | 25272 ft | 362 kts | 314° |
| 2026-05-07 20:03 | 42.96450 | -71.48188 | 25877 ft | 361 kts | 314° |
| 2026-05-07 20:04 | 42.98389 | -71.50371 | 26442 ft | 364 kts | 314° |
| 2026-05-07 20:04 | 43.00361 | -71.52573 | 26997 ft | 365 kts | 314° |
| 2026-05-07 20:04 | 43.02338 | -71.54774 | 27433 ft | 370 kts | 314° |
| 2026-05-07 20:04 | 43.04327 | -71.57037 | 27853 ft | 373 kts | 313° |
| 2026-05-07 20:05 | 43.06335 | -71.59308 | 28348 ft | 374 kts | 313° |
| 2026-05-07 20:05 | 43.08315 | -71.61553 | 28837 ft | 376 kts | 313° |
| 2026-05-07 20:05 | 43.10362 | -71.63896 | 29139 ft | 382 kts | 313° |
| 2026-05-07 20:05 | 43.12413 | -71.66247 | 29511 ft | 386 kts | 313° |
| 2026-05-07 20:06 | 43.14455 | -71.68567 | 29932 ft | 387 kts | 313° |
| 2026-05-07 20:06 | 43.16538 | -71.70918 | 30419 ft | 387 kts | 313° |
| 2026-05-07 20:06 | 43.18608 | -71.73269 | 30808 ft | 389 kts | 312° |
| 2026-05-07 20:06 | 43.20703 | -71.75672 | 30954 ft | 397 kts | 312° |
| 2026-05-07 20:07 | 43.22830 | -71.78106 | 31366 ft | 395 kts | 312° |
| 2026-05-07 20:07 | 43.24929 | -71.80481 | 32048 ft | 389 kts | 311° |
| 2026-05-07 20:07 | 43.27017 | -71.82851 | 32361 ft | 392 kts | 311° |
| 2026-05-07 20:07 | 43.29140 | -71.85278 | 32453 ft | 399 kts | 311° |
| 2026-05-07 20:08 | 43.31252 | -71.87722 | 32900 ft | 397 kts | 311° |
| 2026-05-07 20:08 | 43.33399 | -71.90163 | 33052 ft | 404 kts | 311° |
| 2026-05-07 20:08 | 43.35571 | -71.92684 | 32908 ft | 415 kts | 310° |
| 2026-05-07 20:08 | 43.37782 | -71.95246 | 33293 ft | 411 kts | 311° |
| 2026-05-07 20:09 | 43.39948 | -71.97770 | 33808 ft | 407 kts | 310° |
| 2026-05-07 20:09 | 43.42124 | -72.00307 | 33796 ft | 411 kts | 311° |
| 2026-05-07 20:10 | 43.48719 | -72.07918 | 33809 ft | 413 kts | 311° |
| 2026-05-07 20:10 | 43.53106 | -72.12994 | 33810 ft | 411 kts | 311° |
| 2026-05-07 20:11 | 43.57485 | -72.18071 | 33810 ft | 410 kts | 311° |
| 2026-05-07 20:11 | 43.61850 | -72.23141 | 33810 ft | 409 kts | 310° |
| 2026-05-07 20:12 | 43.66176 | -72.28177 | 33810 ft | 409 kts | 310° |
| 2026-05-07 20:12 | 43.70532 | -72.33257 | 33810 ft | 409 kts | 310° |
| 2026-05-07 20:13 | 43.74877 | -72.38333 | 33810 ft | 409 kts | 310° |
| 2026-05-07 20:13 | 43.79223 | -72.43422 | 33810 ft | 409 kts | 310° |
| 2026-05-07 20:14 | 43.83566 | -72.48518 | 33810 ft | 409 kts | 310° |
| 2026-05-07 20:14 | 43.87905 | -72.53617 | 33810 ft | 409 kts | 310° |
| 2026-05-07 20:15 | 43.92241 | -72.58725 | 33810 ft | 409 kts | 310° |
| 2026-05-07 20:15 | 43.96574 | -72.63838 | 33810 ft | 409 kts | 310° |
| 2026-05-07 20:16 | 44.00896 | -72.68944 | 33247 ft | 405 kts | 310° |
| 2026-05-07 20:16 | 44.03032 | -72.71474 | 32763 ft | 406 kts | 311° |
| 2026-05-07 20:16 | 44.05189 | -72.74034 | 32273 ft | 407 kts | 311° |
| 2026-05-07 20:16 | 44.07346 | -72.76593 | 31784 ft | 408 kts | 311° |
| 2026-05-07 20:17 | 44.09478 | -72.79125 | 31302 ft | 408 kts | 311° |
| 2026-05-07 20:17 | 44.11633 | -72.81685 | 30813 ft | 406 kts | 311° |
| 2026-05-07 20:17 | 44.13763 | -72.84220 | 30331 ft | 401 kts | 312° |
| 2026-05-07 20:17 | 44.15873 | -72.86732 | 29853 ft | 397 kts | 312° |
| 2026-05-07 20:18 | 44.17962 | -72.89224 | 29380 ft | 394 kts | 312° |
| 2026-05-07 20:18 | 44.20039 | -72.91703 | 28910 ft | 391 kts | 312° |
| 2026-05-07 20:18 | 44.22092 | -72.94157 | 28445 ft | 388 kts | 312° |
| 2026-05-07 20:18 | 44.24135 | -72.96599 | 27982 ft | 385 kts | 313° |
| 2026-05-07 20:19 | 44.26160 | -72.99023 | 27523 ft | 381 kts | 313° |
| 2026-05-07 20:19 | 44.28160 | -73.01420 | 27069 ft | 377 kts | 313° |
| 2026-05-07 20:19 | 44.30145 | -73.03801 | 26619 ft | 375 kts | 313° |
| 2026-05-07 20:19 | 44.32117 | -73.06168 | 26172 ft | 372 kts | 313° |
| 2026-05-07 20:20 | 44.34071 | -73.08516 | 25728 ft | 370 kts | 313° |
| 2026-05-07 20:20 | 44.36014 | -73.10852 | 25287 ft | 367 kts | 313° |
| 2026-05-07 20:20 | 44.37942 | -73.13173 | 24850 ft | 365 kts | 314° |
| 2026-05-07 20:20 | 44.39857 | -73.15481 | 24415 ft | 362 kts | 314° |
| 2026-05-07 20:21 | 44.41756 | -73.17770 | 23983 ft | 360 kts | 314° |
| 2026-05-07 20:21 | 44.43648 | -73.20054 | 23564 ft | 358 kts | 314° |
| 2026-05-07 20:21 | 44.45533 | -73.22330 | 23128 ft | 356 kts | 314° |
| 2026-05-07 20:21 | 44.47392 | -73.24578 | 22704 ft | 353 kts | 314° |
| 2026-05-07 20:22 | 44.49247 | -73.26823 | 22282 ft | 352 kts | 314° |
| 2026-05-07 20:22 | 44.51093 | -73.29058 | 21862 ft | 349 kts | 315° |
| 2026-05-07 20:22 | 44.52925 | -73.31279 | 21445 ft | 347 kts | 315° |
| 2026-05-07 20:22 | 44.54746 | -73.33488 | 21031 ft | 346 kts | 315° |
| 2026-05-07 20:23 | 44.56562 | -73.35683 | 20614 ft | 344 kts | 315° |
| 2026-05-07 20:23 | 44.58360 | -73.37867 | 20208 ft | 341 kts | 315° |
| 2026-05-07 20:23 | 44.60149 | -73.40049 | 19801 ft | 340 kts | 315° |
| 2026-05-07 20:23 | 44.61931 | -73.42223 | 19395 ft | 338 kts | 315° |
| 2026-05-07 20:24 | 44.63705 | -73.44386 | 18991 ft | 336 kts | 315° |
| 2026-05-07 20:24 | 44.65470 | -73.46538 | 18589 ft | 335 kts | 316° |
| 2026-05-07 20:24 | 44.67222 | -73.48675 | 18190 ft | 333 kts | 316° |
| 2026-05-07 20:24 | 44.69026 | -73.50729 | 17760 ft | 335 kts | 323° |
| 2026-05-07 20:25 | 44.71133 | -73.52132 | 17444 ft | 338 kts | 341° |
| 2026-05-07 20:25 | 44.73465 | -73.52642 | 17124 ft | 341 kts | 349° |
| 2026-05-07 20:25 | 44.75033 | -73.52852 | 16851 ft | 342 kts | 350° |
| 2026-05-07 20:25 | 44.77404 | -73.53144 | 16451 ft | 341 kts | 350° |
| 2026-05-07 20:26 | 44.79766 | -73.53423 | 16054 ft | 340 kts | 350° |
| 2026-05-07 20:26 | 44.82112 | -73.53702 | 15653 ft | 336 kts | 349° |
| 2026-05-07 20:26 | 44.84422 | -73.53978 | 15255 ft | 330 kts | 350° |
| 2026-05-07 20:26 | 44.86692 | -73.54246 | 14863 ft | 326 kts | 351° |
| 2026-05-07 20:27 | 44.88944 | -73.54491 | 14475 ft | 323 kts | 351° |
| 2026-05-07 20:27 | 44.91183 | -73.54733 | 14089 ft | 322 kts | 351° |
| 2026-05-07 20:27 | 44.93407 | -73.54978 | 13705 ft | 320 kts | 351° |
| 2026-05-07 20:27 | 44.94837 | -73.55136 | 13458 ft | 318 kts | 351° |
| 2026-05-07 20:28 | 44.96906 | -73.55364 | 13102 ft | 317 kts | 352° |
| 2026-05-07 20:28 | 44.99106 | -73.55605 | 12722 ft | 316 kts | 352° |
| 2026-05-07 20:28 | 45.01284 | -73.55845 | 12346 ft | 313 kts | 352° |
| 2026-05-07 20:28 | 45.03457 | -73.56085 | 11971 ft | 313 kts | 352° |
| 2026-05-07 20:29 | 45.05618 | -73.56324 | 11598 ft | 311 kts | 352° |
| 2026-05-07 20:29 | 45.07743 | -73.56559 | 11231 ft | 310 kts | 352° |
| 2026-05-07 20:29 | 45.09888 | -73.56795 | 10973 ft | 304 kts | 352° |
| 2026-05-07 20:29 | 45.11957 | -73.57021 | 10985 ft | 293 kts | 352° |
| 2026-05-07 20:30 | 45.13929 | -73.57238 | 10993 ft | 283 kts | 352° |
| 2026-05-07 20:30 | 45.15860 | -73.57451 | 10996 ft | 275 kts | 352° |
| 2026-05-07 20:30 | 45.17772 | -73.57664 | 10997 ft | 268 kts | 352° |
| 2026-05-07 20:30 | 45.19604 | -73.57866 | 10999 ft | 261 kts | 352° |
| 2026-05-07 20:31 | 45.21395 | -73.58065 | 11000 ft | 255 kts | 351° |
| 2026-05-07 20:31 | 45.23147 | -73.58258 | 10999 ft | 249 kts | 351° |
| 2026-05-07 20:31 | 45.24825 | -73.58444 | 10999 ft | 244 kts | 352° |
| 2026-05-07 20:31 | 45.26514 | -73.58632 | 10911 ft | 247 kts | 352° |
| 2026-05-07 20:32 | 45.28277 | -73.58830 | 10567 ft | 258 kts | 352° |
| 2026-05-07 20:32 | 45.30093 | -73.59031 | 10163 ft | 266 kts | 352° |
| 2026-05-07 20:32 | 45.31956 | -73.59234 | 9621 ft | 270 kts | 352° |
| 2026-05-07 20:32 | 45.33837 | -73.59440 | 9071 ft | 273 kts | 352° |
| 2026-05-07 20:33 | 45.35733 | -73.59647 | 8511 ft | 271 kts | 353° |
| 2026-05-07 20:33 | 45.37592 | -73.59808 | 7972 ft | 265 kts | 358° |
| 2026-05-07 20:33 | 45.39380 | -73.59352 | 7512 ft | 260 kts | 16° |
| 2026-05-07 20:33 | 45.40993 | -73.58223 | 7046 ft | 256 kts | 26° |
| 2026-05-07 20:34 | 45.42491 | -73.56884 | 6537 ft | 252 kts | 29° |
| 2026-05-07 20:34 | 45.43943 | -73.55526 | 6069 ft | 247 kts | 29° |
| 2026-05-07 20:34 | 45.45368 | -73.54180 | 5678 ft | 244 kts | 29° |
| 2026-05-07 20:34 | 45.46771 | -73.52847 | 5327 ft | 239 kts | 29° |
| 2026-05-07 20:35 | 45.48137 | -73.51543 | 5000 ft | 234 kts | 29° |
| 2026-05-07 20:35 | 45.49453 | -73.50276 | 4681 ft | 228 kts | 28° |
| 2026-05-07 20:35 | 45.50766 | -73.49008 | 4368 ft | 222 kts | 30° |
| 2026-05-07 20:35 | 45.52025 | -73.47794 | 4070 ft | 216 kts | 29° |
| 2026-05-07 20:36 | 45.53229 | -73.46629 | 3976 ft | 201 kts | 29° |
| 2026-05-07 20:36 | 45.54364 | -73.45534 | 3994 ft | 192 kts | 28° |
| 2026-05-07 20:36 | 45.55434 | -73.44502 | 3994 ft | 184 kts | 28° |
| 2026-05-07 20:36 | 45.56465 | -73.43488 | 3994 ft | 177 kts | 31° |
| 2026-05-07 20:37 | 45.57392 | -73.42362 | 3996 ft | 174 kts | 36° |
| 2026-05-07 20:37 | 45.58292 | -73.41188 | 4001 ft | 176 kts | 37° |
| 2026-05-07 20:37 | 45.59315 | -73.40373 | 3987 ft | 165 kts | 358° |
| 2026-05-07 20:37 | 45.60368 | -73.40888 | 4108 ft | 167 kts | 323° |
| 2026-05-07 20:38 | 45.61316 | -73.41990 | 4153 ft | 183 kts | 316° |
| 2026-05-07 20:38 | 45.62253 | -73.43256 | 4081 ft | 187 kts | 315° |
| 2026-05-07 20:38 | 45.63133 | -73.44614 | 3694 ft | 187 kts | 301° |
| 2026-05-07 20:38 | 45.63282 | -73.46462 | 3297 ft | 189 kts | 263° |
| 2026-05-07 20:39 | 45.62936 | -73.48247 | 3038 ft | 187 kts | 255° |
| 2026-05-07 20:39 | 45.62526 | -73.49922 | 2969 ft | 173 kts | 255° |
| 2026-05-07 20:39 | 45.62273 | -73.51524 | 2950 ft | 160 kts | 268° |
| 2026-05-07 20:39 | 45.62237 | -73.53118 | 2980 ft | 160 kts | 273° |
| 2026-05-07 20:40 | 45.62111 | -73.54717 | 2931 ft | 166 kts | 257° |
| 2026-05-07 20:40 | 45.61532 | -73.56158 | 2905 ft | 170 kts | 236° |
| 2026-05-07 20:40 | 45.60705 | -73.57384 | 2868 ft | 173 kts | 229° |
| 2026-05-07 20:40 | 45.59834 | -73.58530 | 2887 ft | 170 kts | 229° |
| 2026-05-07 20:41 | 45.58990 | -73.59653 | 2841 ft | 159 kts | 229° |
| 2026-05-07 20:41 | 45.58200 | -73.60689 | 2771 ft | 152 kts | 228° |
| 2026-05-07 20:41 | 45.57408 | -73.61690 | 2528 ft | 152 kts | 229° |
| 2026-05-07 20:41 | 45.56625 | -73.62676 | 2301 ft | 150 kts | 227° |
| 2026-05-07 20:42 | 45.55848 | -73.63631 | 2103 ft | 144 kts | 228° |
| 2026-05-07 20:42 | 45.55092 | -73.64575 | 1905 ft | 146 kts | 229° |
| 2026-05-07 20:42 | 45.54368 | -73.65571 | 1732 ft | 144 kts | 231° |
| 2026-05-07 20:42 | 45.53653 | -73.66568 | 1543 ft | 144 kts | 231° |
| 2026-05-07 20:43 | 45.52936 | -73.67544 | 1411 ft | 144 kts | 229° |
| 2026-05-07 20:43 | 45.52192 | -73.68520 | 1270 ft | 142 kts | 230° |
| 2026-05-07 20:43 | 45.51452 | -73.69488 | 1052 ft | 147 kts | 229° |
| 2026-05-07 20:43 | 45.50711 | -73.70450 | 856 ft | 144 kts | 230° |
| 2026-05-07 20:44 | 45.49981 | -73.71413 | 660 ft | 142 kts | 229° |
| 2026-05-07 20:44 | 45.49255 | -73.72347 | 496 ft | 140 kts | 232° |
| 2026-05-07 20:44 | 45.48529 | -73.73334 | 288 ft | 147 kts | 228° |
| 2026-05-07 20:44 | 45.47778 | -73.74298 | 128 ft | 138 kts | 228° |
| 2026-05-07 20:45 | 45.47237 | -73.75021 | 127 ft | 72 kts | 222° |
| 2026-05-07 20:45 | 45.47042 | -73.75275 | 127 ft | 15 kts | 224° |
| 2026-05-07 20:45 | 45.46953 | -73.75382 | 127 ft | 16 kts | 223° |
| 2026-05-07 20:45 | 45.46881 | -73.75477 | 127 ft | 13 kts | 222° |
| 2026-05-07 20:46 | 45.46817 | -73.75546 | 127 ft | 10 kts | 209° |
| 2026-05-07 20:46 | 45.46756 | -73.75578 | 127 ft | 9 kts | 195° |
| 2026-05-07 20:46 | 45.46695 | -73.75599 | 127 ft | 8 kts | 192° |
| 2026-05-07 20:46 | 45.46643 | -73.75614 | 127 ft | 7 kts | 191° |
| 2026-05-07 20:47 | 45.46598 | -73.75627 | 127 ft | 7 kts | 192° |
| 2026-05-07 20:47 | 45.46543 | -73.75645 | 127 ft | 9 kts | 193° |
| 2026-05-07 20:47 | 45.46475 | -73.75667 | 127 ft | 11 kts | 192° |
| 2026-05-07 20:47 | 45.46397 | -73.75691 | 127 ft | 12 kts | 193° |
| 2026-05-07 20:48 | 45.46310 | -73.75719 | 127 ft | 13 kts | 189° |
| 2026-05-07 20:48 | 45.46218 | -73.75724 | 127 ft | 13 kts | 175° |
| 2026-05-07 20:48 | 45.46137 | -73.75694 | 127 ft | 10 kts | 123° |
| 2026-05-07 20:48 | 45.46130 | -73.75617 | 127 ft | 7 kts | 88° |
| 2026-05-07 20:49 | 45.46132 | -73.75557 | 127 ft | 7 kts | 86° |
| 2026-05-07 20:49 | 45.46134 | -73.75477 | 127 ft | 8 kts | 88° |
| 2026-05-07 20:49 | 45.46131 | -73.75395 | 127 ft | 7 kts | 115° |
| 2026-05-07 20:49 | 45.46094 | -73.75367 | 127 ft | 6 kts | 172° |
| 2026-05-07 20:50 | 45.46048 | -73.75341 | 127 ft | 5 kts | 133° |
| 2026-05-07 20:50 | 45.46027 | -73.75295 | 127 ft | 7 kts | 117° |
| 2026-05-07 20:50 | 45.46006 | -73.75224 | 127 ft | 7 kts | 105° |
| 2026-05-07 20:50 | 45.45996 | -73.75166 | 127 ft | 5 kts | 115° |
| 2026-05-07 20:51 | 45.45964 | -73.75139 | 127 ft | 5 kts | 169° |
| 2026-05-07 20:51 | 45.45929 | -73.75134 | 127 ft | 2 kts | 177° |
| 2026-05-07 20:51 | 45.45928 | -73.75134 | 127 ft | 0 kts | 177° |